Time;durP1;ratioP1;P1;durP2;ratioP2;P2;SDS_P1;SDS_P2;PMS_P1;PMS_P2;Temp;Humidity;BMP_temperature;BMP_pressure;BME280_temperature;BME280_humidity;BME280_pressure;Samples;Min_cycle;Max_cycle;Signal;HPM_P1;HPM_P2
2023/05/09 00:00:13;;;;;;;25.10;18.60;;;16.00;99.90;;;;;;5038875;28;20381;-72
2023/05/09 00:02:39;;;;;;;22.30;17.73;;;16.00;99.90;;;;;;5064821;28;20392;-74
2023/05/09 00:05:06;;;;;;;21.13;18.50;;;16.10;97.80;;;;;;5072092;28;20422;-73
2023/05/09 00:07:32;;;;;;;26.00;18.98;;;16.10;97.70;;;;;;5061979;28;20396;-73
2023/05/09 00:09:58;;;;;;;25.17;19.35;;;16.10;97.90;;;;;;5051768;28;20374;-74
2023/05/09 00:12:24;;;;;;;30.70;19.73;;;16.00;99.60;;;;;;5050700;28;20412;-74
2023/05/09 00:14:53;;;;;;;25.08;20.58;;;15.90;99.90;;;;;;5051623;28;20834;-73
2023/05/09 00:17:21;;;;;;;27.13;19.30;;;15.90;99.90;;;;;;5052110;28;20384;-75
2023/05/09 00:19:48;;;;;;;25.83;19.60;;;15.90;99.90;;;;;;5051846;28;20896;-75
2023/05/09 00:22:14;;;;;;;24.20;19.37;;;15.90;99.90;;;;;;5051112;28;20397;-74
2023/05/09 00:24:40;;;;;;;23.10;18.83;;;16.00;98.70;;;;;;5051884;28;20679;-74
2023/05/09 00:27:06;;;;;;;25.63;19.90;;;15.90;99.50;;;;;;5052471;28;20889;-74
2023/05/09 00:29:31;;;;;;;22.58;19.10;;;15.90;99.90;;;;;;5055590;28;20381;-74
2023/05/09 00:31:57;;;;;;;29.57;20.13;;;15.80;99.90;;;;;;5055864;28;20389;-74
2023/05/09 00:34:22;;;;;;;27.07;21.40;;;15.80;99.90;;;;;;5057030;28;20432;-74
2023/05/09 00:36:48;;;;;;;26.95;20.80;;;15.80;99.90;;;;;;5057203;28;20897;-74
2023/05/09 00:39:14;;;;;;;31.20;20.92;;;15.90;99.90;;;;;;5056406;28;20897;-74
2023/05/09 00:41:39;;;;;;;30.58;22.10;;;15.80;99.90;;;;;;5055435;28;20377;-74
2023/05/09 00:44:05;;;;;;;30.77;21.13;;;15.80;99.90;;;;;;5056021;28;20396;-74
2023/05/09 00:46:31;;;;;;;29.75;21.15;;;15.80;99.90;;;;;;5056494;28;20415;-73
2023/05/09 00:48:57;;;;;;;34.23;21.73;;;15.80;99.90;;;;;;5057247;28;20750;-74
2023/05/09 00:51:23;;;;;;;29.50;22.53;;;15.80;99.90;;;;;;5057622;28;20381;-74
2023/05/09 00:53:48;;;;;;;26.38;21.45;;;15.80;99.90;;;;;;5061069;28;20439;-74
2023/05/09 00:56:14;;;;;;;30.27;21.57;;;15.90;99.90;;;;;;5060868;28;20390;-75
2023/05/09 00:58:40;;;;;;;27.52;21.90;;;15.80;99.90;;;;;;5060424;28;20396;-73
2023/05/09 01:01:07;;;;;;;26.87;21.70;;;15.70;99.90;;;;;;5061670;28;20424;-73
2023/05/09 01:03:33;;;;;;;29.15;22.30;;;15.70;99.90;;;;;;5063131;28;20374;-73
2023/05/09 01:06:15;;;;;;;35.28;23.45;;;15.80;99.90;;;;;;5055088;28;20882;-73
2023/05/09 01:08:56;;;;;;;32.00;23.37;;;15.80;99.90;;;;;;5054520;28;20735;-74
2023/05/09 01:11:47;;;;;;;30.05;22.33;;;15.80;99.90;;;;;;5053125;28;20393;-73
2023/05/09 01:14:37;;;;;;;29.13;22.90;;;15.80;99.90;;;;;;5054043;28;20878;-73
2023/05/09 01:17:17;;;;;;;33.13;23.48;;;15.90;99.90;;;;;;5053645;28;20923;-73
2023/05/09 01:19:52;;;;;;;27.90;22.00;;;15.90;99.90;;;;;;5053486;28;20424;-72
2023/05/09 01:22:20;;;;;;;30.67;22.90;;;15.90;99.90;;;;;;5052984;28;20898;-74
2023/05/09 01:24:52;;;;;;;31.60;23.77;;;16.10;98.80;;;;;;5053514;28;20431;-73
2023/05/09 01:27:47;;;;;;;32.75;23.10;;;16.10;98.90;;;;;;5053584;28;20912;-74
2023/05/09 01:30:14;;;;;;;30.92;24.00;;;16.00;98.30;;;;;;5053590;28;20386;-73
2023/05/09 01:32:42;;;;;;;40.35;24.95;;;16.10;98.00;;;;;;5052563;28;20414;-73
2023/05/09 01:35:11;;;;;;;31.48;24.30;;;16.10;97.90;;;;;;5053186;28;20385;-73
2023/05/09 01:37:41;;;;;;;33.83;25.00;;;16.20;96.90;;;;;;5053210;28;20389;-72
2023/05/09 01:40:12;;;;;;;31.33;24.48;;;16.30;95.90;;;;;;5052382;28;20742;-72
2023/05/09 01:42:42;;;;;;;32.50;24.50;;;16.30;96.10;;;;;;5052405;28;20728;-72
2023/05/09 01:45:09;;;;;;;32.85;25.10;;;16.30;96.20;;;;;;5053150;28;20381;-73
2023/05/09 01:47:36;;;;;;;37.27;24.40;;;16.30;96.60;;;;;;5053103;28;20466;-73
2023/05/09 01:50:04;;;;;;;36.33;25.05;;;16.30;96.80;;;;;;5053095;28;20473;-73
2023/05/09 01:52:30;;;;;;;34.40;24.60;;;16.30;97.30;;;;;;5052291;28;20428;-74
2023/05/09 01:54:59;;;;;;;34.77;24.33;;;16.20;98.00;;;;;;5052893;28;20437;-74
2023/05/09 01:57:25;;;;;;;34.13;24.98;;;16.30;97.60;;;;;;5052893;28;20752;-74
2023/05/09 01:59:52;;;;;;;35.63;25.83;;;16.30;97.90;;;;;;5034838;28;20378;-73
2023/05/09 02:02:18;;;;;;;34.13;25.10;;;16.40;96.90;;;;;;5052082;28;20432;-73
2023/05/09 02:04:45;;;;;;;39.55;26.90;;;16.40;97.40;;;;;;5052677;28;20389;-74
2023/05/09 02:07:12;;;;;;;37.97;27.25;;;16.40;97.50;;;;;;5034874;28;20385;-73
2023/05/09 02:09:37;;;;;;;41.63;26.55;;;16.50;96.80;;;;;;5052520;28;20423;-73
2023/05/09 02:12:03;;;;;;;39.77;25.80;;;16.50;97.60;;;;;;5051976;28;20381;-71
2023/05/09 02:14:29;;;;;;;43.83;27.93;;;16.50;97.50;;;;;;5052661;28;20382;-73
2023/05/09 02:16:55;;;;;;;43.45;28.95;;;16.50;98.20;;;;;;5053233;28;20823;-71
2023/05/09 02:19:21;;;;;;;46.47;31.00;;;16.50;99.20;;;;;;5053001;28;20389;-73
2023/05/09 02:21:46;;;;;;;53.03;30.33;;;16.50;98.70;;;;;;5051964;28;20428;-73
2023/05/09 02:24:12;;;;;;;49.97;32.10;;;16.50;99.20;;;;;;5034812;28;20511;-73
2023/05/09 02:26:39;;;;;;;53.15;32.90;;;16.50;98.50;;;;;;5052411;28;20467;-73
2023/05/09 02:29:06;;;;;;;56.20;34.20;;;16.60;98.70;;;;;;5052408;28;20392;-73
2023/05/09 02:31:33;;;;;;;57.63;35.70;;;16.50;98.50;;;;;;5051977;28;20410;-73
2023/05/09 02:34:01;;;;;;;74.05;37.97;;;16.50;98.40;;;;;;5051904;28;20458;-73
2023/05/09 02:36:27;;;;;;;71.57;37.37;;;16.50;98.70;;;;;;5052265;28;20377;-74
2023/05/09 02:38:53;;;;;;;70.32;38.60;;;16.60;98.50;;;;;;5051921;28;20740;-73
2023/05/09 02:41:18;;;;;;;72.80;37.75;;;16.50;99.50;;;;;;5051742;28;20404;-74
2023/05/09 02:43:44;;;;;;;73.95;40.85;;;16.50;99.40;;;;;;5052016;28;20878;-74
2023/05/09 02:46:10;;;;;;;72.55;37.83;;;16.50;99.90;;;;;;5051959;28;20381;-73
2023/05/09 02:48:36;;;;;;;67.63;37.00;;;16.50;99.90;;;;;;5051371;28;20386;-74
2023/05/09 02:51:01;;;;;;;66.93;36.75;;;16.50;99.90;;;;;;5050511;28;20397;-72
2023/05/09 02:53:27;;;;;;;61.80;35.80;;;16.40;99.90;;;;;;5052640;28;20484;-73
2023/05/09 02:55:53;;;;;;;73.90;36.90;;;16.40;99.90;;;;;;5033959;28;20393;-73
2023/05/09 02:58:19;;;;;;;68.10;36.20;;;16.40;99.90;;;;;;5051946;28;20385;-73
2023/05/09 03:00:45;;;;;;;61.53;36.05;;;16.40;99.90;;;;;;5051490;28;20382;-74
2023/05/09 03:03:10;;;;;;;58.53;33.97;;;16.40;99.90;;;;;;5051069;28;20381;-73
2023/05/09 03:05:36;;;;;;;64.32;36.45;;;16.40;99.90;;;;;;5051644;28;20913;-74
2023/05/09 03:08:01;;;;;;;60.70;34.40;;;16.50;99.90;;;;;;5051645;28;20389;-74
2023/05/09 03:10:27;;;;;;;64.73;35.87;;;16.50;99.90;;;;;;5051562;28;20746;-74
2023/05/09 03:12:53;;;;;;;65.30;36.03;;;16.60;98.90;;;;;;5050869;28;20394;-72
2023/05/09 03:15:19;;;;;;;70.68;37.78;;;16.50;99.20;;;;;;5051825;28;20416;-74
2023/05/09 03:17:45;;;;;;;65.68;37.10;;;16.50;99.90;;;;;;5052204;28;20797;-73
2023/05/09 03:20:11;;;;;;;76.82;37.80;;;16.50;99.90;;;;;;5052215;28;20381;-75
2023/05/09 03:22:37;;;;;;;80.00;40.88;;;16.50;99.70;;;;;;5054925;28;20964;-72
2023/05/09 03:25:02;;;;;;;77.78;40.67;;;16.50;99.60;;;;;;5055705;28;20424;-73
2023/05/09 03:27:28;;;;;;;81.27;40.33;;;16.50;99.90;;;;;;5054889;28;20385;-73
2023/05/09 03:29:54;;;;;;;77.13;40.10;;;16.40;99.90;;;;;;5054566;28;20462;-73
2023/05/09 03:32:19;;;;;;;69.15;38.95;;;16.40;99.90;;;;;;5052694;28;20408;-74
2023/05/09 03:34:45;;;;;;;69.43;39.55;;;16.40;99.90;;;;;;5055951;28;20438;-73
2023/05/09 03:37:10;;;;;;;78.37;40.20;;;16.40;99.90;;;;;;5054877;28;20429;-73
2023/05/09 03:39:36;;;;;;;81.90;40.93;;;16.30;99.90;;;;;;5056742;28;20381;-73
2023/05/09 03:42:01;;;;;;;73.00;39.70;;;16.40;99.90;;;;;;5054772;28;20480;-73
2023/05/09 03:44:27;;;;;;;75.03;39.40;;;16.40;99.90;;;;;;5055754;28;20420;-73
2023/05/09 03:46:52;;;;;;;72.20;40.77;;;16.40;99.90;;;;;;5054862;28;20381;-73
2023/05/09 03:49:18;;;;;;;73.22;39.05;;;16.40;99.90;;;;;;5056556;28;20448;-73
2023/05/09 03:51:44;;;;;;;77.00;40.47;;;16.40;99.90;;;;;;5055219;28;20441;-73
2023/05/09 03:54:09;;;;;;;76.80;40.77;;;16.40;99.90;;;;;;5064713;28;20402;-74
2023/05/09 03:56:35;;;;;;;78.32;41.25;;;16.40;99.90;;;;;;5063419;28;20456;-74
2023/05/09 03:59:00;;;;;;;71.30;40.53;;;16.30;99.90;;;;;;5060746;28;20374;-73
2023/05/09 04:01:26;;;;;;;70.60;38.93;;;16.40;99.90;;;;;;5057459;28;20401;-74
2023/05/09 04:03:51;;;;;;;63.90;36.95;;;16.30;99.90;;;;;;5053260;28;20393;-73
2023/05/09 04:06:17;;;;;;;74.15;38.67;;;16.40;99.90;;;;;;5054688;28;20385;-73
2023/05/09 04:08:43;;;;;;;74.53;38.60;;;16.30;99.90;;;;;;5051938;28;20389;-72
2023/05/09 04:11:09;;;;;;;70.72;39.00;;;16.30;99.90;;;;;;5050484;28;20416;-74
2023/05/09 04:13:35;;;;;;;73.35;39.95;;;16.30;99.90;;;;;;5051790;28;20458;-73
2023/05/09 04:16:00;;;;;;;72.77;39.10;;;16.30;99.90;;;;;;5051539;28;20385;-75
2023/05/09 04:18:26;;;;;;;69.90;38.30;;;16.20;99.90;;;;;;5051302;28;20381;-73
2023/05/09 04:20:52;;;;;;;69.88;39.13;;;16.30;99.90;;;;;;5032781;28;20441;-73
2023/05/09 04:23:18;;;;;;;77.80;42.28;;;16.30;99.90;;;;;;5052140;28;20901;-72
2023/05/09 04:25:43;;;;;;;79.60;39.60;;;16.30;99.90;;;;;;5052186;28;20393;-72
2023/05/09 04:28:09;;;;;;;73.53;39.00;;;16.30;99.90;;;;;;5051368;28;20381;-73
2023/05/09 04:30:35;;;;;;;73.77;37.60;;;16.30;99.90;;;;;;5051120;28;20393;-73
2023/05/09 04:33:00;;;;;;;60.03;35.40;;;16.40;99.90;;;;;;5050078;28;20496;-73
2023/05/09 04:35:26;;;;;;;62.17;35.50;;;16.40;99.90;;;;;;5051037;28;20392;-73
2023/05/09 04:37:52;;;;;;;76.00;39.35;;;16.50;98.70;;;;;;5050524;28;20464;-72
2023/05/09 04:40:17;;;;;;;85.68;40.75;;;16.50;97.50;;;;;;5050514;28;20389;-73
2023/05/09 04:42:43;;;;;;;82.03;41.97;;;16.60;95.70;;;;;;5049817;28;20393;-74
2023/05/09 04:45:10;;;;;;;83.53;40.80;;;16.50;96.80;;;;;;5050704;28;20404;-73
2023/05/09 04:47:36;;;;;;;75.13;38.20;;;16.50;97.70;;;;;;5050834;28;20538;-73
2023/05/09 04:50:02;;;;;;;75.00;38.03;;;16.40;98.90;;;;;;5051940;28;20389;-72
2023/05/09 04:52:27;;;;;;;56.57;33.70;;;16.40;99.70;;;;;;5050986;28;20462;-73
2023/05/09 04:54:53;;;;;;;48.13;31.90;;;16.40;99.00;;;;;;5051438;28;20512;-72
2023/05/09 04:57:18;;;;;;;48.03;31.60;;;16.40;98.10;;;;;;5034385;28;20469;-74
2023/05/09 04:59:44;;;;;;;48.60;32.08;;;16.50;96.40;;;;;;5051938;28;20878;-74
2023/05/09 05:02:10;;;;;;;53.77;33.10;;;16.60;94.40;;;;;;5052943;28;20874;-74
2023/05/09 05:04:57;;;;;;;63.77;34.73;;;16.60;95.10;;;;;;5059227;28;20413;-74
2023/05/09 05:07:22;;;;;;;64.57;35.70;;;16.60;95.90;;;;;;5040630;28;20961;-73
2023/05/09 05:09:48;;;;;;;56.97;33.87;;;16.50;94.80;;;;;;5059206;28;20417;-76
2023/05/09 05:12:13;;;;;;;63.13;33.92;;;16.60;94.50;;;;;;5059686;28;20431;-76
2023/05/09 05:14:39;;;;;;;58.60;34.50;;;16.70;93.90;;;;;;5060825;28;20954;-75
2023/05/09 05:17:05;;;;;;;52.40;33.23;;;16.80;91.60;;;;;;5046607;28;20889;-75
2023/05/09 05:19:30;;;;;;;51.42;32.05;;;16.80;89.40;;;;;;5063978;28;20406;-74
2023/05/09 05:21:56;;;;;;;49.67;31.77;;;16.80;89.10;;;;;;5063161;28;20485;-74
2023/05/09 05:24:21;;;;;;;46.13;30.70;;;16.90;89.20;;;;;;5062082;28;20415;-73
2023/05/09 05:26:47;;;;;;;43.00;30.03;;;17.10;85.40;;;;;;5060549;28;20704;-74
2023/05/09 05:29:12;;;;;;;48.10;29.08;;;17.20;83.40;;;;;;5042269;28;20390;-72
2023/05/09 05:31:38;;;;;;;45.90;30.13;;;17.20;83.00;;;;;;5059518;28;20389;-73
2023/05/09 05:34:03;;;;;;;37.42;28.45;;;17.40;80.80;;;;;;5054790;28;20405;-74
2023/05/09 05:36:30;;;;;;;38.80;27.80;;;17.50;79.30;;;;;;5053524;28;20389;-73
2023/05/09 05:38:55;;;;;;;37.95;27.17;;;17.40;80.10;;;;;;5053439;28;20381;-74
2023/05/09 05:41:22;;;;;;;39.58;27.85;;;17.60;78.60;;;;;;5052769;28;20913;-74
2023/05/09 05:43:47;;;;;;;42.60;28.52;;;17.70;77.30;;;;;;5053328;28;20388;-73
2023/05/09 05:46:13;;;;;;;41.58;28.05;;;17.70;75.30;;;;;;5053056;28;20393;-74
2023/05/09 05:48:38;;;;;;;42.47;28.33;;;17.70;75.90;;;;;;5052827;28;20389;-73
2023/05/09 05:51:04;;;;;;;41.03;28.30;;;17.80;75.40;;;;;;5052588;28;20858;-72
2023/05/09 05:53:30;;;;;;;42.17;29.27;;;18.10;71.30;;;;;;5052814;28;20401;-73
2023/05/09 05:55:55;;;;;;;39.40;27.10;;;18.30;70.50;;;;;;5035981;28;20401;-72
2023/05/09 05:58:21;;;;;;;37.40;25.90;;;18.70;67.10;;;;;;5053511;28;20377;-74
2023/05/09 06:00:46;;;;;;;39.03;26.40;;;19.00;63.80;;;;;;5053076;28;20423;-73
2023/05/09 06:03:13;;;;;;;35.07;25.97;;;19.10;61.80;;;;;;5052793;28;20766;-71
2023/05/09 06:05:43;;;;;;;37.28;26.92;;;19.10;60.00;;;;;;5052458;28;20882;-73
2023/05/09 06:08:08;;;;;;;37.80;27.35;;;19.10;59.60;;;;;;5053080;28;20393;-71
2023/05/09 06:10:34;;;;;;;42.27;26.10;;;19.10;59.10;;;;;;5052099;28;20398;-71
2023/05/09 06:12:59;;;;;;;38.07;26.83;;;19.10;59.10;;;;;;5051975;28;20401;-73
2023/05/09 06:15:25;;;;;;;35.63;26.05;;;19.10;59.30;;;;;;5053021;28;20404;-73
2023/05/09 06:17:50;;;;;;;36.13;27.10;;;18.90;60.60;;;;;;5035172;28;20882;-69
2023/05/09 06:20:16;;;;;;;36.72;26.42;;;18.80;60.60;;;;;;5050522;28;20389;-72
2023/05/09 06:22:41;;;;;;;33.70;26.40;;;18.70;63.00;;;;;;5049644;28;20409;-73
2023/05/09 06:25:07;;;;;;;42.33;27.93;;;18.80;63.40;;;;;;5049377;28;20424;-74
2023/05/09 06:27:33;;;;;;;42.13;27.10;;;18.80;63.90;;;;;;5049966;28;20447;-70
2023/05/09 06:29:58;;;;;;;38.35;27.25;;;18.80;63.90;;;;;;5049704;28;20695;-72
2023/05/09 06:32:24;;;;;;;36.47;25.87;;;18.90;62.40;;;;;;5049287;28;20513;-72
2023/05/09 06:34:50;;;;;;;37.33;26.90;;;19.10;61.30;;;;;;5029190;28;20466;-72
2023/05/09 06:37:15;;;;;;;34.07;26.03;;;19.10;60.20;;;;;;5049809;28;20435;-72
2023/05/09 06:39:41;;;;;;;35.30;25.57;;;19.20;59.80;;;;;;5049618;28;20413;-72
2023/05/09 06:42:06;;;;;;;33.28;25.00;;;19.30;58.70;;;;;;5048869;28;20389;-71
2023/05/09 06:44:32;;;;;;;33.17;25.03;;;19.40;58.90;;;;;;5049709;28;20390;-72
2023/05/09 06:46:57;;;;;;;33.90;24.63;;;19.40;60.20;;;;;;5031548;28;20399;-71
2023/05/09 06:49:23;;;;;;;37.57;25.77;;;19.60;57.30;;;;;;5050289;28;20413;-72
2023/05/09 06:51:48;;;;;;;33.13;23.70;;;19.70;56.60;;;;;;5048336;28;20477;-70
2023/05/09 06:54:15;;;;;;;35.05;23.63;;;20.00;55.00;;;;;;5048992;28;20405;-74
2023/05/09 06:56:41;;;;;;;38.42;26.55;;;20.10;55.10;;;;;;5049085;28;20381;-72
2023/05/09 06:59:07;;;;;;;32.73;22.97;;;20.30;53.00;;;;;;5030429;28;20728;-72
2023/05/09 07:01:32;;;;;;;34.13;22.75;;;20.40;50.20;;;;;;5047719;28;20397;-71
2023/05/09 07:03:58;;;;;;;31.33;21.73;;;20.40;50.50;;;;;;5048628;28;20492;-71
2023/05/09 07:06:24;;;;;;;34.00;23.33;;;20.60;48.20;;;;;;5049230;28;20463;-72
2023/05/09 07:08:49;;;;;;;31.10;22.00;;;20.50;49.00;;;;;;5051388;28;20472;-73
2023/05/09 07:11:15;;;;;;;30.92;23.70;;;20.50;49.60;;;;;;5032061;28;20385;-72
2023/05/09 07:13:40;;;;;;;31.00;22.70;;;20.70;48.70;;;;;;5049115;28;20397;-71
2023/05/09 07:16:06;;;;;;;30.60;21.25;;;20.90;47.90;;;;;;5049288;28;20526;-71
2023/05/09 07:18:32;;;;;;;29.50;20.97;;;20.90;48.00;;;;;;5049150;28;20392;-73
2023/05/09 07:20:57;;;;;;;25.90;20.80;;;20.80;47.60;;;;;;5048935;28;20385;-71
2023/05/09 07:23:24;;;;;;;27.90;21.10;;;20.70;47.40;;;;;;5049608;28;20398;-73
2023/05/09 07:25:56;;;;;;;28.38;19.73;;;20.70;46.90;;;;;;5050149;28;20442;-73
2023/05/09 07:28:21;;;;;;;29.05;21.33;;;20.60;48.40;;;;;;5049450;28;20708;-72
2023/05/09 07:30:47;;;;;;;28.60;21.15;;;20.70;46.90;;;;;;5048980;28;20447;-74
2023/05/09 07:33:12;;;;;;;29.40;20.87;;;20.70;47.40;;;;;;5048207;28;20448;-73
2023/05/09 07:35:38;;;;;;;29.33;21.23;;;20.80;46.60;;;;;;5046804;28;20622;-71
2023/05/09 07:38:05;;;;;;;28.03;20.23;;;20.70;46.80;;;;;;5048199;28;20392;-72
2023/05/09 07:40:32;;;;;;;29.83;20.80;;;20.70;46.00;;;;;;5048865;28;20392;-71
2023/05/09 07:42:57;;;;;;;28.92;21.90;;;20.60;47.80;;;;;;5048188;28;20412;-72
2023/05/09 07:45:23;;;;;;;28.88;21.13;;;20.50;48.30;;;;;;5049039;28;20385;-73
2023/05/09 07:47:49;;;;;;;27.50;20.40;;;20.40;48.80;;;;;;5048581;28;20536;-72
2023/05/09 07:50:15;;;;;;;31.63;21.17;;;20.40;48.40;;;;;;5049092;28;20431;-72
2023/05/09 07:52:41;;;;;;;29.50;21.40;;;20.40;48.70;;;;;;5058343;28;20403;-71
2023/05/09 07:55:07;;;;;;;25.70;19.70;;;20.60;48.10;;;;;;5048514;28;20408;-72
2023/05/09 07:57:33;;;;;;;27.20;19.48;;;20.70;47.20;;;;;;5048265;28;20389;-71
2023/05/09 07:59:58;;;;;;;26.30;19.40;;;20.80;46.30;;;;;;5048343;28;20394;-71
2023/05/09 08:02:24;;;;;;;24.10;18.73;;;20.70;46.10;;;;;;5047699;28;20393;-71
2023/05/09 08:04:49;;;;;;;23.13;18.60;;;20.80;45.20;;;;;;5048562;28;20403;-71
2023/05/09 08:07:15;;;;;;;25.90;19.80;;;20.70;47.10;;;;;;5047970;28;20495;-72
2023/05/09 08:09:41;;;;;;;25.80;18.80;;;20.70;46.80;;;;;;5043002;28;20409;-79
2023/05/09 08:12:06;;;;;;;23.43;18.13;;;20.80;44.40;;;;;;5051900;28;20390;-78
2023/05/09 08:14:32;;;;;;;21.30;16.90;;;20.80;43.70;;;;;;5035943;28;20769;-78
2023/05/09 08:16:58;;;;;;;23.75;17.70;;;21.00;43.70;;;;;;5053294;28;20393;-71
2023/05/09 08:19:24;;;;;;;22.83;16.20;;;21.00;41.20;;;;;;5050629;28;21032;-71
2023/05/09 08:21:51;;;;;;;22.15;16.17;;;21.00;41.70;;;;;;5050139;28;20446;-71
2023/05/09 08:24:16;;;;;;;16.75;13.75;;;21.10;40.30;;;;;;5051128;28;20951;-72
2023/05/09 08:26:43;;;;;;;17.80;13.03;;;21.20;37.70;;;;;;5050291;28;20389;-71
2023/05/09 08:29:08;;;;;;;16.27;11.60;;;21.30;37.20;;;;;;5049708;28;20412;-72
2023/05/09 08:31:34;;;;;;;13.10;10.27;;;21.30;34.40;;;;;;5049860;28;20385;-72
2023/05/09 08:33:59;;;;;;;13.23;11.07;;;21.30;34.20;;;;;;5050656;28;20480;-75
2023/05/09 08:36:25;;;;;;;14.20;10.43;;;21.50;32.90;;;;;;5051087;28;20408;-74
2023/05/09 08:38:51;;;;;;;12.43;10.00;;;21.70;31.10;;;;;;5050035;28;20408;-73
2023/05/09 08:41:16;;;;;;;11.63;10.10;;;21.80;30.40;;;;;;5049528;28;20394;-72
2023/05/09 08:43:43;;;;;;;15.77;10.80;;;22.00;29.80;;;;;;5032578;28;20396;-72
2023/05/09 08:46:09;;;;;;;14.30;10.55;;;22.20;29.70;;;;;;5050131;28;20937;-72
2023/05/09 08:48:38;;;;;;;13.45;9.25;;;22.30;29.10;;;;;;5050520;28;20440;-72
2023/05/09 08:51:05;;;;;;;8.90;8.00;;;22.20;27.90;;;;;;5053798;28;20820;-71
2023/05/09 08:53:32;;;;;;;9.63;8.00;;;22.30;27.00;;;;;;5036346;28;20496;-71
2023/05/09 08:56:00;;;;;;;12.07;8.23;;;22.50;26.50;;;;;;5054359;28;20417;-73
2023/05/09 08:58:25;;;;;;;7.03;5.90;;;22.70;25.60;;;;;;5036582;28;20378;-73
2023/05/09 09:00:52;;;;;;;6.78;5.75;;;22.70;24.10;;;;;;5053614;28;20389;-74
2023/05/09 09:03:18;;;;;;;9.98;6.60;;;22.90;22.80;;;;;;5053652;28;20754;-72
2023/05/09 09:05:46;;;;;;;10.15;6.20;;;23.10;22.80;;;;;;5054101;28;20463;-73
2023/05/09 09:08:11;;;;;;;9.88;6.10;;;23.20;21.80;;;;;;5053420;28;20718;-73
2023/05/09 09:10:40;;;;;;;7.40;5.80;;;23.40;22.30;;;;;;5053749;28;20393;-72
2023/05/09 09:13:08;;;;;;;8.07;6.10;;;23.50;21.00;;;;;;5052875;28;20443;-71
2023/05/09 09:15:36;;;;;;;9.85;6.13;;;23.60;20.60;;;;;;5053452;28;20837;-72
2023/05/09 09:18:14;;;;;;;12.65;5.97;;;23.70;21.30;;;;;;5053066;28;20450;-72
2023/05/09 09:20:50;;;;;;;8.30;5.70;;;24.10;19.40;;;;;;5040130;28;20828;-70
2023/05/09 09:23:19;;;;;;;6.55;5.50;;;24.10;19.30;;;;;;5054573;28;20443;-73
2023/05/09 09:25:56;;;;;;;6.90;5.20;;;24.20;19.20;;;;;;5060203;28;20757;-72
2023/05/09 09:28:22;;;;;;;6.87;4.43;;;24.30;18.90;;;;;;5059097;28;20388;-73
2023/05/09 09:30:48;;;;;;;5.63;4.10;;;24.60;17.60;;;;;;5056618;28;20389;-73
2023/05/09 09:33:31;;;;;;;6.22;4.60;;;24.90;17.40;;;;;;5050994;28;20891;-73
2023/05/09 09:35:58;;;;;;;7.88;4.65;;;25.00;16.50;;;;;;5054192;28;20397;-74
2023/05/09 09:38:25;;;;;;;8.20;5.10;;;24.80;16.60;;;;;;5054629;28;20439;-72
2023/05/09 09:40:51;;;;;;;9.05;4.03;;;24.90;17.10;;;;;;5053649;28;20389;-71
2023/05/09 09:43:16;;;;;;;6.47;4.47;;;24.90;16.70;;;;;;5038142;28;20427;-73
2023/05/09 09:45:42;;;;;;;8.32;4.15;;;25.10;16.40;;;;;;5058689;28;20431;-72
2023/05/09 09:48:07;;;;;;;6.23;4.60;;;24.90;17.10;;;;;;5053129;28;21081;-75
2023/05/09 09:50:33;;;;;;;7.75;4.80;;;24.60;16.90;;;;;;5052971;28;20396;-74
2023/05/09 09:53:02;;;;;;;6.17;4.70;;;24.70;17.30;;;;;;5052795;28;20419;-73
2023/05/09 09:55:28;;;;;;;10.00;5.50;;;24.70;17.00;;;;;;5053287;28;20812;-75
2023/05/09 09:57:54;;;;;;;5.85;4.80;;;24.60;17.10;;;;;;5054470;28;20464;-76
2023/05/09 10:00:30;;;;;;;6.40;4.50;;;24.60;16.90;;;;;;5053298;28;20465;-76
2023/05/09 10:02:58;;;;;;;5.72;4.60;;;24.40;17.70;;;;;;5053126;28;20381;-76
2023/05/09 10:05:29;;;;;;;6.35;4.60;;;24.40;17.30;;;;;;5053727;28;20439;-75
2023/05/09 10:08:02;;;;;;;6.22;4.53;;;24.50;17.80;;;;;;5035396;28;20389;-74
2023/05/09 10:10:33;;;;;;;4.97;4.10;;;24.50;17.70;;;;;;5053350;28;20381;-76
2023/05/09 10:13:02;;;;;;;6.13;5.30;;;24.60;17.30;;;;;;5053547;28;20432;-75
2023/05/09 10:15:30;;;;;;;6.30;4.57;;;24.70;17.70;;;;;;5058620;28;20492;-76
2023/05/09 10:17:59;;;;;;;6.65;4.45;;;24.60;17.20;;;;;;5059755;28;20416;-76
2023/05/09 10:20:27;;;;;;;7.43;4.40;;;24.70;17.20;;;;;;5054670;28;20942;-76
2023/05/09 10:23:01;;;;;;;6.55;4.28;;;24.70;17.10;;;;;;5052004;28;20492;-75
2023/05/09 10:25:41;;;;;;;4.97;4.47;;;24.70;17.10;;;;;;5053028;28;20374;-75
2023/05/09 10:28:16;;;;;;;7.05;4.28;;;24.60;17.10;;;;;;5052694;28;21352;-75
2023/05/09 10:31:05;;;;;;;4.50;4.10;;;24.70;17.20;;;;;;5053608;28;20777;-76
2023/05/09 10:33:37;;;;;;;5.43;4.15;;;24.80;17.40;;;;;;5053332;28;20811;-76
2023/05/09 10:36:03;;;;;;;9.27;4.00;;;25.00;16.60;;;;;;5053626;28;20382;-76
2023/05/09 10:38:30;;;;;;;9.13;4.50;;;25.10;16.30;;;;;;5053820;28;20396;-76
2023/05/09 10:40:56;;;;;;;8.43;4.80;;;25.10;16.00;;;;;;5053092;28;20465;-74
2023/05/09 10:43:24;;;;;;;5.18;4.50;;;25.20;16.50;;;;;;5057101;28;20386;-74
2023/05/09 10:45:50;;;;;;;6.03;4.60;;;25.20;16.50;;;;;;5057526;28;20428;-75
2023/05/09 10:48:17;;;;;;;6.63;4.60;;;25.10;17.10;;;;;;5058597;28;20386;-75
2023/05/09 10:50:43;;;;;;;8.55;3.80;;;25.20;16.40;;;;;;5057350;28;20390;-75
2023/05/09 10:53:12;;;;;;;3.92;3.50;;;25.20;16.10;;;;;;5052574;28;20428;-75
2023/05/09 10:55:57;;;;;;;5.43;3.95;;;25.20;15.10;;;;;;5035199;28;20555;-74
2023/05/09 10:58:30;;;;;;;5.43;4.20;;;25.10;15.70;;;;;;5056375;28;20389;-76
2023/05/09 11:00:58;;;;;;;8.70;5.93;;;25.20;15.70;;;;;;5055431;28;20381;-76
2023/05/09 11:03:25;;;;;;;6.22;3.78;;;25.40;15.60;;;;;;5055304;28;20397;-76
2023/05/09 11:05:53;;;;;;;7.07;3.50;;;25.70;15.10;;;;;;5055117;28;20418;-76
2023/05/09 11:08:26;;;;;;;6.10;4.30;;;25.50;15.70;;;;;;5055402;28;20496;-76
2023/05/09 11:10:53;;;;;;;6.97;3.80;;;25.50;14.90;;;;;;5036312;28;20790;-74
2023/05/09 11:13:22;;;;;;;5.57;3.55;;;25.60;14.60;;;;;;5053180;28;20413;-76
2023/05/09 11:16:00;;;;;;;6.95;4.10;;;25.70;14.20;;;;;;5054274;28;20447;-76
2023/05/09 11:18:27;;;;;;;14.52;4.38;;;25.60;13.80;;;;;;5053782;28;20884;-77
2023/05/09 11:20:53;;;;;;;9.93;4.40;;;25.60;13.60;;;;;;5054178;28;20888;-76
2023/05/09 11:23:20;;;;;;;8.23;3.90;;;26.00;14.10;;;;;;5053442;28;20462;-76
2023/05/09 11:25:47;;;;;;;5.40;3.60;;;26.00;14.20;;;;;;5054517;28;20827;-76
2023/05/09 11:28:27;;;;;;;7.07;4.35;;;26.40;14.10;;;;;;5055217;28;20386;-75
2023/05/09 11:31:07;;;;;;;5.28;3.80;;;26.60;13.10;;;;;;5055075;28;20393;-76
2023/05/09 11:33:35;;;;;;;7.75;3.80;;;26.70;13.10;;;;;;5056752;28;20878;-75
2023/05/09 11:36:29;;;;;;;6.28;4.00;;;26.80;12.90;;;;;;5053080;28;20500;-76
2023/05/09 11:39:10;;;;;;;8.25;3.92;;;26.90;12.40;;;;;;5053094;28;20460;-76
2023/05/09 11:41:48;;;;;;;5.82;3.20;;;27.00;12.50;;;;;;5051761;28;20377;-76
2023/05/09 11:44:19;;;;;;;8.35;3.30;;;27.00;12.20;;;;;;5052524;28;20471;-75
2023/05/09 11:46:46;;;;;;;6.20;3.22;;;26.90;11.80;;;;;;5052069;28;20393;-75
2023/05/09 11:49:12;;;;;;;8.00;4.28;;;27.00;11.80;;;;;;5051929;28;20386;-76
2023/05/09 11:51:38;;;;;;;9.23;3.40;;;26.90;12.10;;;;;;5051593;28;20424;-76
2023/05/09 11:54:09;;;;;;;4.05;3.70;;;26.90;12.20;;;;;;5051404;28;20431;-75
2023/05/09 11:56:37;;;;;;;8.50;3.67;;;26.60;12.50;;;;;;5051543;28;20421;-76
2023/05/09 11:59:03;;;;;;;3.83;3.38;;;26.50;12.20;;;;;;5033924;28;20385;-76
2023/05/09 12:01:29;;;;;;;4.97;3.40;;;26.40;12.20;;;;;;5051369;28;20442;-75
2023/05/09 12:03:56;;;;;;;5.22;3.42;;;26.40;13.00;;;;;;5051415;28;20393;-76
2023/05/09 12:06:21;;;;;;;7.97;3.90;;;26.40;12.30;;;;;;5051051;28;20432;-75
2023/05/09 12:08:47;;;;;;;4.45;3.05;;;26.30;12.20;;;;;;5052422;28;20393;-77
2023/05/09 12:11:13;;;;;;;7.27;4.00;;;26.50;12.70;;;;;;5051345;28;20428;-76
2023/05/09 12:13:51;;;;;;;8.57;3.33;;;26.70;12.50;;;;;;5033771;28;20416;-74
2023/05/09 12:16:17;;;;;;;5.50;3.13;;;26.50;13.00;;;;;;5033787;28;20435;-75
2023/05/09 12:18:45;;;;;;;9.68;4.00;;;26.10;13.10;;;;;;5051910;28;20385;-75
2023/05/09 12:21:11;;;;;;;5.80;3.78;;;25.90;12.50;;;;;;5051815;28;20481;-75
2023/05/09 12:23:37;;;;;;;5.13;4.22;;;25.70;13.40;;;;;;5033781;28;20898;-75
2023/05/09 12:26:02;;;;;;;8.90;3.67;;;25.70;14.10;;;;;;5055428;28;20389;-74
2023/05/09 12:28:29;;;;;;;7.27;3.90;;;25.60;14.00;;;;;;5056609;28;20383;-76
2023/05/09 12:30:54;;;;;;;6.25;4.00;;;25.60;14.00;;;;;;5055171;28;20408;-76
2023/05/09 12:33:21;;;;;;;4.35;3.42;;;25.50;14.20;;;;;;5055424;28;20429;-75